createdAt,value
2022-12-09T00:01:20.980Z,55.77
2022-12-09T00:03:49.865Z,55.68
2022-12-09T00:06:22.975Z,55.52
2022-12-09T00:08:51.133Z,55.74
2022-12-09T00:11:19.353Z,55.73
2022-12-09T00:13:54.269Z,55.83
2022-12-09T00:16:23.443Z,55.80
2022-12-09T00:18:51.011Z,55.66
2022-12-09T00:21:20.677Z,55.67
2022-12-09T00:23:53.286Z,56.02
2022-12-09T00:26:22.381Z,55.84
2022-12-09T00:28:50.931Z,55.74
2022-12-09T00:31:21.921Z,55.97
2022-12-09T00:33:49.434Z,55.79
2022-12-09T00:36:20.307Z,56.12
2022-12-09T00:38:48.411Z,55.90
2022-12-09T00:41:16.588Z,56.15
2022-12-09T00:43:44.280Z,56.28
2022-12-09T00:46:13.016Z,55.94
2022-12-09T00:48:40.917Z,55.96
2022-12-09T00:51:11.219Z,56.27
2022-12-09T00:53:39.238Z,56.08
2022-12-09T00:56:07.054Z,55.98
2022-12-09T00:58:34.413Z,56.02
2022-12-09T01:01:01.746Z,56.00
2022-12-09T01:03:29.006Z,56.42
2022-12-09T01:05:56.905Z,56.40
2022-12-09T01:08:23.945Z,56.10
2022-12-09T01:10:50.893Z,56.35
2022-12-09T01:13:18.015Z,56.38
2022-12-09T01:15:45.714Z,56.56
2022-12-09T01:18:13.581Z,56.58
2022-12-09T01:20:41.054Z,56.27
2022-12-09T01:23:08.654Z,56.56
2022-12-09T01:25:38.804Z,56.52
2022-12-09T01:28:06.140Z,56.40
2022-12-09T01:30:33.294Z,56.61
2022-12-09T01:33:00.383Z,56.59
2022-12-09T01:35:27.912Z,56.57
2022-12-09T01:37:56.244Z,56.76
2022-12-09T01:40:23.735Z,56.77
2022-12-09T01:42:51.566Z,56.73
2022-12-09T01:45:30.795Z,56.94
2022-12-09T01:48:11.572Z,56.80
2022-12-09T01:50:42.932Z,56.77
2022-12-09T01:53:10.138Z,56.71
2022-12-09T01:55:37.374Z,56.45
2022-12-09T01:58:05.798Z,56.76
2022-12-09T02:00:33.033Z,56.79
2022-12-09T02:03:01.795Z,56.80
2022-12-09T02:05:30.985Z,56.78
2022-12-09T02:07:58.122Z,56.69
2022-12-09T02:10:26.477Z,57.04
2022-12-09T02:13:02.297Z,56.83
2022-12-09T02:15:38.371Z,56.89
2022-12-09T02:18:25.178Z,56.87
2022-12-09T02:21:01.327Z,56.95
2022-12-09T02:23:38.657Z,57.23
2022-12-09T02:26:23.621Z,57.08
2022-12-09T02:29:11.401Z,57.13
2022-12-09T02:31:57.277Z,57.25
2022-12-09T02:34:31.745Z,56.97
2022-12-09T02:37:10.711Z,57.39
2022-12-09T02:39:59.356Z,57.13
2022-12-09T02:42:31.256Z,57.02
2022-12-09T02:45:01.926Z,57.37
2022-12-09T02:47:31.852Z,57.36
2022-12-09T02:50:05.787Z,57.27
2022-12-09T02:52:35.637Z,57.28
2022-12-09T02:55:07.709Z,57.40
2022-12-09T02:57:37.796Z,57.68
2022-12-09T03:00:07.569Z,57.73
2022-12-09T03:02:44.884Z,57.43
2022-12-09T03:05:30.439Z,57.62
2022-12-09T03:08:15.736Z,57.60
2022-12-09T03:10:59.800Z,57.38
2022-12-09T03:14:02.424Z,57.58
2022-12-09T03:16:39.754Z,57.58
2022-12-09T03:19:17.609Z,57.66
2022-12-09T03:21:48.257Z,57.68
2022-12-09T03:24:21.551Z,57.85
2022-12-09T03:26:50.326Z,57.72
2022-12-09T03:29:21.895Z,57.65
2022-12-09T03:31:51.125Z,58.05
2022-12-09T03:34:23.411Z,57.93
2022-12-09T03:36:53.180Z,57.59
2022-12-09T03:39:26.255Z,57.70
2022-12-09T03:41:58.328Z,57.97
2022-12-09T03:44:25.446Z,57.54
2022-12-09T03:46:52.693Z,57.76
2022-12-09T03:49:19.776Z,57.84
2022-12-09T03:51:54.358Z,57.50
2022-12-09T03:54:44.655Z,57.50
2022-12-09T03:57:19.090Z,57.68
2022-12-09T03:59:58.835Z,57.59
2022-12-09T04:02:26.556Z,57.84
2022-12-09T04:04:53.605Z,57.72
2022-12-09T04:07:20.773Z,57.75
2022-12-09T04:09:47.862Z,58.04
2022-12-09T04:12:15.162Z,57.82
2022-12-09T04:14:42.061Z,58.14
2022-12-09T04:17:10.415Z,57.98
2022-12-09T04:19:37.523Z,58.27
2022-12-09T04:22:04.857Z,58.31
2022-12-09T04:24:31.752Z,58.33
2022-12-09T04:26:58.693Z,58.39
2022-12-09T04:29:25.915Z,58.14
2022-12-09T04:31:53.157Z,58.27
2022-12-09T04:34:20.086Z,58.49
2022-12-09T04:36:48.037Z,58.19
2022-12-09T04:39:15.338Z,58.40
2022-12-09T04:41:42.148Z,58.34
2022-12-09T04:44:09.183Z,58.66
2022-12-09T04:46:36.305Z,58.68
2022-12-09T04:49:04.201Z,58.63
2022-12-09T04:51:37.538Z,58.46
2022-12-09T04:54:07.102Z,58.70
2022-12-09T04:56:33.992Z,57.83
2022-12-09T04:59:01.147Z,57.63
2022-12-09T05:01:31.253Z,57.77
2022-12-09T05:03:59.320Z,57.91
2022-12-09T05:06:26.903Z,57.80
2022-12-09T05:08:54.954Z,57.74
2022-12-09T05:11:24.160Z,57.85
2022-12-09T05:13:53.346Z,57.60
2022-12-09T05:16:20.773Z,57.90
2022-12-09T05:18:49.243Z,57.82
2022-12-09T05:21:19.223Z,57.83
2022-12-09T05:23:47.293Z,57.64
2022-12-09T05:26:17.207Z,57.71
2022-12-09T05:28:44.447Z,57.59
2022-12-09T05:31:15.621Z,57.74
2022-12-09T05:34:00.023Z,57.99
2022-12-09T05:36:30.414Z,57.92
2022-12-09T05:38:57.914Z,57.88
2022-12-09T05:41:26.135Z,58.05
2022-12-09T05:43:54.018Z,58.32
2022-12-09T05:46:21.590Z,58.28
2022-12-09T05:48:49.053Z,58.58
2022-12-09T05:51:23.833Z,58.33
2022-12-09T05:53:51.693Z,58.35
2022-12-09T05:56:20.536Z,58.66
2022-12-09T05:58:48.072Z,58.46
2022-12-09T06:01:15.569Z,58.67
2022-12-09T06:03:42.957Z,58.58
2022-12-09T06:06:13.703Z,59.11
2022-12-09T06:08:42.682Z,59.39
2022-12-09T06:11:16.317Z,59.38
2022-12-09T06:13:43.500Z,59.26
2022-12-09T06:16:11.355Z,59.37
2022-12-09T06:18:39.292Z,59.32
2022-12-09T06:21:08.209Z,59.54
2022-12-09T06:23:37.311Z,59.51
2022-12-09T06:26:05.668Z,59.81
2022-12-09T06:28:32.660Z,59.76
2022-12-09T06:31:00.384Z,59.63
2022-12-09T06:33:53.727Z,59.80
2022-12-09T06:36:15.012Z,59.68
2022-12-09T06:38:42.616Z,59.91
2022-12-09T06:41:11.753Z,59.79
2022-12-09T06:43:40.057Z,59.64
2022-12-09T06:46:15.620Z,59.66
2022-12-09T06:48:42.904Z,59.52
2022-12-09T06:51:10.541Z,59.59
2022-12-09T06:53:37.891Z,58.82
2022-12-09T06:56:11.869Z,58.42
2022-12-09T06:58:40.571Z,58.56
2022-12-09T07:01:14.895Z,58.43
2022-12-09T07:03:43.928Z,59.08
2022-12-09T07:06:31.104Z,58.46
2022-12-09T07:09:01.328Z,58.32
2022-12-09T07:11:29.494Z,58.55
2022-12-09T07:13:56.910Z,58.45
2022-12-09T07:16:24.732Z,58.69
2022-12-09T07:18:55.560Z,58.64
2022-12-09T07:21:24.046Z,58.54
2022-12-09T07:23:51.891Z,58.30
2022-12-09T07:26:19.944Z,57.91
2022-12-09T07:28:48.299Z,57.18
2022-12-09T07:31:27.377Z,56.21
2022-12-09T07:33:56.428Z,56.37
2022-12-09T07:36:25.868Z,57.03
2022-12-09T07:39:04.174Z,57.74
2022-12-09T07:41:31.683Z,57.71
2022-12-09T07:43:59.196Z,57.88
2022-12-09T07:46:29.144Z,57.89
2022-12-09T07:48:58.375Z,58.08
2022-12-09T07:51:26.178Z,58.36
2022-12-09T07:53:54.191Z,58.50
2022-12-09T07:56:22.584Z,58.50
2022-12-09T07:58:51.966Z,58.52
2022-12-09T08:01:21.744Z,58.33
2022-12-09T08:03:50.499Z,58.49
2022-12-09T08:06:20.677Z,58.53
2022-12-09T08:08:49.187Z,58.81
2022-12-09T08:11:20.683Z,58.66
2022-12-09T08:13:48.955Z,58.59
2022-12-09T08:16:18.514Z,58.77
2022-12-09T08:18:46.447Z,58.80
2022-12-09T08:21:19.704Z,59.00
2022-12-09T08:23:47.239Z,59.23
2022-12-09T08:26:16.235Z,58.93
2022-12-09T08:28:43.673Z,58.93
2022-12-09T08:31:15.666Z,58.85
2022-12-09T08:33:43.525Z,59.22
2022-12-09T08:36:14.508Z,59.18
2022-12-09T08:38:42.728Z,59.34
2022-12-09T08:41:18.877Z,59.28
2022-12-09T08:43:49.267Z,59.35
2022-12-09T08:46:16.595Z,59.38
2022-12-09T08:48:44.717Z,59.26
2022-12-09T08:51:13.199Z,59.50
2022-12-09T08:53:40.777Z,59.29
2022-12-09T08:56:12.931Z,59.48
2022-12-09T08:58:41.309Z,59.32
2022-12-09T09:01:15.666Z,59.70
2022-12-09T09:03:43.931Z,59.50
2022-12-09T09:06:12.315Z,59.68
2022-12-09T09:08:40.464Z,59.44
2022-12-09T09:11:13.446Z,59.67
2022-12-09T09:13:42.246Z,59.76
2022-12-09T09:16:18.656Z,59.75
2022-12-09T09:18:46.612Z,59.83
2022-12-09T09:21:16.062Z,59.82
2022-12-09T09:23:44.609Z,59.82
2022-12-09T09:26:20.755Z,59.69
2022-12-09T09:28:49.517Z,59.82
2022-12-09T09:31:20.498Z,59.84
2022-12-09T09:33:49.787Z,59.60
2022-12-09T09:36:23.543Z,59.91
2022-12-09T09:38:53.280Z,60.06
2022-12-09T09:41:33.254Z,59.66
2022-12-09T09:44:01.099Z,59.77
2022-12-09T09:46:45.104Z,60.08
2022-12-09T09:49:54.782Z,59.92
2022-12-09T09:52:26.118Z,60.11
2022-12-09T09:54:54.124Z,59.89
2022-12-09T09:57:34.776Z,60.05
2022-12-09T10:00:28.325Z,59.85
2022-12-09T10:03:10.290Z,59.95
2022-12-09T10:06:01.646Z,60.21
2022-12-09T10:08:34.680Z,59.88
2022-12-09T10:11:18.877Z,60.17
2022-12-09T10:14:04.991Z,60.11
2022-12-09T10:16:47.581Z,60.05
2022-12-09T10:19:32.757Z,59.93
2022-12-09T10:22:12.677Z,60.05
2022-12-09T10:24:47.771Z,59.97
2022-12-09T10:30:35.304Z,60.06
2022-12-09T10:33:05.030Z,60.04
2022-12-09T10:35:33.767Z,60.14
2022-12-09T10:38:22.214Z,60.02
2022-12-09T10:41:00.545Z,60.01
2022-12-09T10:43:44.069Z,60.01
2022-12-09T10:46:24.594Z,60.26
2022-12-09T10:48:58.113Z,60.06
2022-12-09T10:51:29.941Z,60.29
2022-12-09T10:54:06.356Z,60.16
2022-12-09T10:56:37.091Z,60.25
2022-12-09T10:59:24.202Z,60.13
2022-12-09T11:01:58.628Z,60.16
2022-12-09T11:04:39.579Z,60.33
2022-12-09T11:07:13.245Z,60.08
2022-12-09T11:09:44.856Z,60.17
2022-12-09T11:12:30.983Z,60.18
2022-12-09T11:15:01.271Z,60.46
2022-12-09T11:17:31.746Z,60.22
2022-12-09T11:20:12.916Z,60.30
2022-12-09T11:22:45.907Z,60.41
2022-12-09T11:25:13.494Z,60.25
2022-12-09T11:28:02.763Z,60.23
2022-12-09T11:30:33.392Z,60.54
2022-12-09T11:33:16.220Z,60.48
2022-12-09T11:35:44.192Z,60.19
2022-12-09T11:39:02.190Z,60.48
2022-12-09T11:41:56.040Z,60.58
2022-12-09T11:44:49.574Z,60.60
2022-12-09T11:50:35.463Z,60.50
2022-12-09T11:53:08.870Z,60.57
2022-12-09T11:55:42.357Z,60.48
2022-12-09T11:58:15.403Z,60.58
2022-12-09T12:00:54.854Z,60.41
2022-12-09T12:04:01.877Z,60.13
2022-12-09T12:07:07.393Z,60.36
2022-12-09T12:10:05.942Z,60.09
2022-12-09T12:12:46.430Z,60.31
2022-12-09T12:15:20.445Z,60.24
2022-12-09T12:17:55.457Z,60.15
2022-12-09T12:20:41.287Z,59.90
2022-12-09T12:23:45.883Z,60.00
2022-12-09T12:26:57.245Z,60.36
2022-12-09T12:29:39.319Z,60.06
2022-12-09T12:32:30.860Z,60.08
2022-12-09T12:35:03.834Z,60.21
2022-12-09T12:37:58.065Z,60.15
2022-12-09T12:40:59.986Z,60.18
2022-12-09T12:43:51.085Z,60.29
2022-12-09T12:46:24.130Z,60.08
2022-12-09T12:48:57.094Z,60.07
2022-12-09T12:51:56.332Z,60.19
2022-12-09T12:54:38.145Z,60.06
2022-12-09T12:57:28.298Z,60.02
2022-12-09T13:00:22.617Z,59.95
2022-12-09T13:03:20.397Z,60.01
2022-12-09T13:05:51.624Z,59.88
2022-12-09T13:08:41.811Z,59.98
2022-12-09T13:11:31.887Z,59.73
2022-12-09T13:14:06.862Z,59.92
2022-12-09T13:16:39.633Z,59.65
2022-12-09T13:19:20.847Z,59.86
2022-12-09T13:21:48.589Z,59.66
2022-12-09T13:24:38.245Z,59.68
2022-12-09T13:27:32.068Z,59.81
2022-12-09T13:30:03.754Z,59.66
2022-12-09T13:32:44.801Z,59.83
2022-12-09T13:35:34.134Z,59.95
2022-12-09T13:38:02.252Z,59.86
2022-12-09T13:40:32.125Z,59.76
2022-12-09T13:43:03.567Z,60.02
2022-12-09T13:45:45.979Z,59.74
2022-12-09T13:48:17.259Z,59.83
2022-12-09T13:50:58.710Z,60.19
2022-12-09T13:53:58.909Z,60.18
2022-12-09T13:56:38.246Z,60.20
2022-12-09T13:59:28.651Z,59.99
2022-12-09T14:02:10.194Z,60.01
2022-12-09T14:04:47.763Z,59.98
2022-12-09T14:07:32.352Z,60.33
2022-12-09T14:10:02.296Z,59.93
2022-12-09T14:12:31.947Z,60.18
2022-12-09T14:15:02.809Z,60.04
2022-12-09T14:17:30.141Z,60.05
2022-12-09T14:20:23.716Z,60.30
2022-12-09T14:23:12.839Z,60.25
2022-12-09T14:26:01.752Z,60.21
2022-12-09T14:28:34.495Z,60.07
2022-12-09T14:31:08.119Z,60.42
2022-12-09T14:33:44.713Z,60.20
2022-12-09T14:36:14.500Z,60.15
2022-12-09T14:41:51.809Z,60.39
2022-12-09T14:44:33.823Z,60.45
2022-12-09T14:47:26.797Z,60.50
2022-12-09T14:49:55.833Z,60.34
2022-12-09T14:52:31.252Z,60.49
2022-12-09T14:55:01.623Z,60.33
2022-12-09T14:57:42.691Z,60.52
2022-12-09T15:00:32.120Z,60.37
2022-12-09T15:06:02.522Z,60.31
2022-12-09T15:08:40.563Z,60.30
2022-12-09T15:11:14.162Z,60.42
2022-12-09T15:13:43.342Z,60.29
2022-12-09T15:16:14.092Z,60.66
2022-12-09T15:18:43.907Z,60.52
2022-12-09T15:21:20.306Z,60.71
2022-12-09T15:23:47.447Z,60.68
2022-12-09T15:26:27.615Z,60.50
2022-12-09T15:28:57.282Z,60.65
2022-12-09T15:31:27.681Z,60.63
2022-12-09T15:33:58.623Z,60.56
2022-12-09T15:36:37.089Z,60.68
2022-12-09T15:39:12.028Z,60.79
2022-12-09T15:42:01.772Z,60.73
2022-12-09T15:44:32.556Z,60.77
2022-12-09T15:47:05.431Z,60.85
2022-12-09T15:49:39.635Z,60.76
2022-12-09T15:52:08.093Z,60.60
2022-12-09T15:54:41.951Z,61.02
2022-12-09T15:57:13.793Z,60.80
2022-12-09T15:59:55.472Z,60.91
2022-12-09T16:02:29.635Z,60.69
2022-12-09T16:05:01.037Z,60.89
2022-12-09T16:07:28.063Z,60.92
2022-12-09T16:10:10.993Z,60.65
2022-12-09T16:12:39.972Z,61.01
2022-12-09T16:15:10.200Z,60.92
2022-12-09T16:17:59.382Z,60.98
2022-12-09T16:20:35.935Z,61.00
2022-12-09T16:23:04.638Z,60.96
2022-12-09T16:25:43.681Z,60.80
2022-12-09T16:28:24.437Z,60.83
2022-12-09T16:30:56.063Z,61.22
2022-12-09T16:33:24.771Z,61.11
2022-12-09T16:36:05.024Z,61.18
2022-12-09T16:38:34.851Z,61.02
2022-12-09T16:41:07.355Z,61.16
2022-12-09T16:43:36.506Z,60.96
2022-12-09T16:46:15.609Z,60.96
2022-12-09T16:48:42.955Z,61.17
2022-12-09T16:51:14.752Z,60.07
2022-12-09T16:53:45.906Z,59.57
2022-12-09T16:56:25.347Z,59.15
2022-12-09T16:58:55.908Z,59.62
2022-12-09T17:01:35.235Z,60.31
2022-12-09T17:04:05.851Z,60.43
2022-12-09T17:06:32.878Z,60.59
2022-12-09T17:08:59.886Z,60.87
2022-12-09T17:11:27.271Z,61.16
2022-12-09T17:13:54.511Z,60.93
2022-12-09T17:16:24.365Z,60.85
2022-12-09T17:18:51.739Z,60.87
2022-12-09T17:21:19.542Z,60.76
2022-12-09T17:23:47.365Z,60.92
2022-12-09T17:26:17.848Z,61.28
2022-12-09T17:28:45.891Z,61.42
2022-12-09T17:31:17.503Z,61.28
2022-12-09T17:33:45.111Z,61.21
2022-12-09T17:36:14.596Z,60.89
2022-12-09T17:38:42.616Z,60.89
2022-12-09T17:41:16.230Z,61.08
2022-12-09T17:43:43.738Z,61.08
2022-12-09T17:46:12.063Z,60.76
2022-12-09T17:48:42.349Z,60.80
2022-12-09T17:51:15.541Z,60.79
2022-12-09T17:53:44.048Z,60.71
2022-12-09T17:56:16.181Z,60.71
2022-12-09T17:58:43.498Z,60.65
2022-12-09T18:01:16.139Z,60.86
2022-12-09T18:04:04.354Z,60.75
2022-12-09T18:06:35.212Z,60.91
2022-12-09T18:09:04.906Z,61.03
2022-12-09T18:11:32.060Z,60.88
2022-12-09T18:13:59.431Z,60.71
2022-12-09T18:16:26.586Z,60.83
2022-12-09T18:18:53.750Z,60.70
2022-12-09T18:21:21.281Z,60.90
2022-12-09T18:23:48.903Z,61.04
2022-12-09T18:26:18.642Z,60.80
2022-12-09T18:28:45.881Z,60.78
2022-12-09T18:31:15.830Z,61.22
2022-12-09T18:33:43.971Z,61.10
2022-12-09T18:36:13.936Z,60.73
2022-12-09T18:38:41.575Z,60.78
2022-12-09T18:41:18.163Z,60.83
2022-12-09T18:43:47.453Z,60.64
2022-12-09T18:46:20.312Z,60.52
2022-12-09T18:49:02.228Z,60.49
2022-12-09T18:51:29.954Z,60.65
2022-12-09T18:53:58.862Z,60.46
2022-12-09T18:56:26.708Z,60.46
2022-12-09T18:59:10.218Z,60.57
2022-12-09T19:01:41.946Z,60.44
2022-12-09T19:04:18.923Z,60.50
2022-12-09T19:06:48.646Z,60.53
2022-12-09T19:09:21.651Z,60.28
2022-12-09T19:11:52.108Z,59.73
2022-12-09T19:14:21.564Z,59.69
2022-12-09T19:16:49.824Z,59.85
2022-12-09T19:19:21.522Z,59.77
2022-12-09T19:21:50.391Z,59.70
2022-12-09T19:24:23.986Z,59.88
2022-12-09T19:26:56.693Z,59.83
2022-12-09T19:29:27.220Z,59.83
2022-12-09T19:31:55.795Z,60.19
2022-12-09T19:34:30.871Z,59.92
2022-12-09T19:37:01.243Z,60.00
2022-12-09T19:39:32.040Z,60.00
2022-12-09T19:42:00.634Z,59.94
2022-12-09T19:44:59.805Z,59.62
2022-12-09T19:47:20.600Z,59.38
2022-12-09T19:49:57.537Z,59.28
2022-12-09T19:52:24.478Z,59.16
2022-12-09T19:54:51.610Z,59.08
2022-12-09T19:57:18.698Z,58.87
2022-12-09T19:59:47.953Z,58.81
2022-12-09T20:02:16.404Z,58.70
2022-12-09T20:04:49.046Z,58.55
2022-12-09T20:07:17.581Z,58.34
2022-12-09T20:09:45.498Z,58.42
2022-12-09T20:12:15.952Z,58.71
2022-12-09T20:14:43.632Z,58.37
2022-12-09T20:17:11.359Z,58.23
2022-12-09T20:19:45.136Z,58.24
2022-12-09T20:22:13.828Z,58.36
2022-12-09T20:24:41.411Z,58.14
2022-12-09T20:27:08.880Z,58.22
2022-12-09T20:29:38.113Z,57.92
2022-12-09T20:32:08.908Z,57.56
2022-12-09T20:34:37.293Z,57.52
2022-12-09T20:37:05.689Z,57.52
2022-12-09T20:39:34.453Z,57.71
2022-12-09T20:42:02.517Z,57.60
2022-12-09T20:44:31.075Z,57.88
2022-12-09T20:46:58.410Z,57.67
2022-12-09T20:49:27.883Z,57.92
2022-12-09T20:51:56.913Z,57.99
2022-12-09T20:54:25.780Z,57.89
2022-12-09T20:56:54.403Z,57.98
2022-12-09T20:59:22.443Z,57.78
2022-12-09T21:01:49.879Z,57.78
2022-12-09T21:04:18.576Z,57.68
2022-12-09T21:06:46.141Z,57.69
2022-12-09T21:09:19.186Z,57.24
2022-12-09T21:11:47.973Z,57.04
2022-12-09T21:14:19.275Z,57.11
2022-12-09T21:16:48.894Z,57.35
2022-12-09T21:19:20.791Z,57.50
2022-12-09T21:21:52.961Z,57.41
2022-12-09T21:24:20.987Z,57.75
2022-12-09T21:26:49.031Z,57.63
2022-12-09T21:29:16.951Z,57.56
2022-12-09T21:31:47.292Z,57.78
2022-12-09T21:34:19.970Z,57.53
2022-12-09T21:36:50.636Z,57.33
2022-12-09T21:39:19.031Z,57.55
2022-12-09T21:41:49.199Z,56.95
2022-12-09T21:44:21.606Z,56.95
2022-12-09T21:46:50.031Z,56.97
2022-12-09T21:49:17.628Z,56.92
2022-12-09T21:51:45.694Z,57.04
2022-12-09T21:54:13.589Z,57.08
2022-12-09T21:56:46.099Z,57.00
2022-12-09T21:59:15.357Z,56.54
2022-12-09T22:01:44.975Z,55.88
2022-12-09T22:04:16.816Z,55.47
2022-12-09T22:06:50.348Z,55.21
2022-12-09T22:09:22.320Z,55.47
2022-12-09T22:11:49.574Z,55.21
2022-12-09T22:14:17.412Z,55.41
2022-12-09T22:16:49.602Z,55.16
2022-12-09T22:19:19.756Z,55.43
2022-12-09T22:21:48.032Z,55.62
2022-12-09T22:24:16.120Z,55.50
2022-12-09T22:26:46.816Z,55.17
2022-12-09T22:29:16.520Z,55.36
2022-12-09T22:31:45.346Z,55.46
2022-12-09T22:34:19.221Z,55.53
2022-12-09T22:36:48.689Z,55.31
2022-12-09T22:39:18.846Z,55.54
2022-12-09T22:41:47.146Z,55.48
2022-12-09T22:44:16.802Z,55.51
2022-12-09T22:46:45.384Z,55.22
2022-12-09T22:49:14.651Z,55.11
2022-12-09T22:51:42.465Z,54.93
2022-12-09T22:54:10.488Z,54.72
2022-12-09T22:56:39.856Z,54.81
2022-12-09T22:59:08.046Z,54.69
2022-12-09T23:01:37.755Z,54.77
2022-12-09T23:04:07.278Z,54.98
2022-12-09T23:06:38.990Z,54.76
2022-12-09T23:09:08.615Z,54.91
2022-12-09T23:11:36.620Z,54.61
2022-12-09T23:14:04.590Z,54.87
2022-12-09T23:16:34.637Z,54.81
2022-12-09T23:19:01.764Z,54.96
2022-12-09T23:21:36.699Z,54.69
2022-12-09T23:24:07.974Z,54.70
2022-12-09T23:26:37.447Z,54.61
2022-12-09T23:29:06.180Z,54.69
2022-12-09T23:31:36.471Z,54.96
2022-12-09T23:34:05.446Z,54.85
2022-12-09T23:36:35.719Z,54.96
2022-12-09T23:39:09.924Z,55.09
2022-12-09T23:41:42.545Z,54.85
2022-12-09T23:44:17.973Z,54.97
2022-12-09T23:46:45.357Z,55.14
2022-12-09T23:49:12.863Z,55.20
2022-12-09T23:51:43.792Z,55.02
2022-12-09T23:54:12.400Z,55.05
2022-12-09T23:56:44.569Z,55.33
2022-12-09T23:59:14.339Z,55.09
